Якутск

Карта отелей и гостиниц, располагающихся рядом с аэропортом Якутск :

Якутск Республика Саха (Якутия) 62° 5' 38.5188" N, 129° 46' 34.0788" E
Код аэродрома ИКАО
UEEE
Код аэродрома RU
УЕЕЕ
Координаты
N62.09403° E129.77613°
Превышение над уровнем моря
100
Основная полоса
05/23
Курс магнитный
052,2/232,2
Длина основной ВПП
3406
Ширина основной ВПП
60
Покрытие основной ВПП
Твёрдое
Освещение ВПП
Постоянное
Тип: 
Аэродром
Класс аэродрома: 
Международный
Принадлежность: 
ГА
Статус: 
Действующий
Сайт: 
http://yks.aero/
E-mail аэродрома: 
office@airport-yakutsk.ru
Страна: 
Россия
Регион: 
Республика Саха (Якутия)
Дополнительная информация: 
Оператор: Акционерное общество «Аэропорт Якутск». Международный аэропорт федерального значения в ДФО на Северо-Востоке России. Расположен в 7 км от центра г. Якутска в Гагаринском округе. Военный индекс: XEEE / ЬЕЕЕ. Имеет также неофициальное название «Туймаада» по названию долины, в которой расположен город Якутск и, соответственно, аэропорт. Аэропорт «Якутск» является единственным в мире аэропортом-полигоном для испытаний новой АТ в условиях низких температур.
Схемы аэропортов: 
Погода: 

Авиационная погода в Якутске

Регион: 
Погода METAR: 
UEEE 290100Z 28002MPS 230V310 CAVOK M16/M19 Q1028 R23L/450155 NOSIG RMK QFE762
Время наблюдения
2020-10-29T01:00:00Z
Температура C
-16.0
Точка росы
-19.0
Направление ветра
280
Скорость ветра (узлы)
4
Метео видимость
6.21
Явления погоды
Условия полета
VFR
Аэропорт подробнее: 

Найти трансфер

С помощью этой формы Вы можете найти трансфер из аэропорта Якутск в город, аэропорт или вокзал:

Карта места

Javascript is required to view this map.

Погода в аэропортах:

Авиационная погода в Витебске

Регион: 
Погода METAR: 
UMII 281536Z 17004G07MPS 4300 BR FEW030 11/09 Q1017 R23/110075 TEMPO 2000 SCT005
Время наблюдения
2020-10-28T15:36:00Z
Температура C
11.0
Точка росы
9.0
Направление ветра
170
Скорость ветра (узлы)
8
Метео видимость
2.67
Явления погоды
BR
Условия полета
IFR

Авиационная погода в аэропорту Имени Алексея Леонова

Регион: 
Погода METAR: 
UNEE 290100Z 24006MPS 9000 -SHSN OVC031CB M05/M08 Q1019 R23/451031 NOSIG RMK QFE741
Время наблюдения
2020-10-29T01:00:00Z
Температура C
-5.0
Точка росы
-8.0
Направление ветра
240
Скорость ветра (узлы)
12
Метео видимость
5.59
Явления погоды
-SHSN
Условия полета
VFR
Аэропорт подробнее: 

Авиационная погода в Вадсё

Регион: 
Погода METAR: 
ENVD 282220Z 26012KT 9999 -SHSN FEW015 SCT022 BKN098 01/M01 Q0995
Время наблюдения
2020-10-28T22:20:00Z
Температура C
1.0
Точка росы
-1.0
Направление ветра
260
Скорость ветра (узлы)
12
Метео видимость
6.21
Явления погоды
-SHSN
Условия полета
VFR

Авиационная погода в Синопе

Регион: 
Погода METAR: 
LTCM 281550Z 25005KT 5000 2000NE BR SCT005 18/17 Q1015
Время наблюдения
2020-10-28T15:50:00Z
Температура C
18.0
Точка росы
17.0
Направление ветра
250
Скорость ветра (узлы)
5
Метео видимость
3.11
Явления погоды
BR
Условия полета
MVFR